Terminal Aerodrome Forecast
Issued by NWS

Home | Current Version | Previous Version | Text Only | Print | Product List | Glossary On
Versions: 1 2 3 4 5 6 7 8 9 10 11 12 13 14 15 16 17 18 19 20 21 22 23
000
FTUS43 KDLH 220500
TAFHIB
TAF
KHIB 220536Z 2206/2306 14007KT 1SM -DZ BR OVC002
     FM220800 14007KT 1SM -SNRA BR OVC002
      TEMPO 2208/2212 3/4SM -SNRA BR OVC004
     FM222300 12004KT 1SM -DZ BR OVC004=

USA.gov is the U.S. government's official web portal to all federal, state and local government web resources and services.